Time;durP1;ratioP1;P1;durP2;ratioP2;P2;SDS_P1;SDS_P2;PMS_P1;PMS_P2;Temp;Humidity;BMP_temperature;BMP_pressure;BME280_temperature;BME280_humidity;BME280_pressure;Samples;Min_cycle;Max_cycle;Signal;HPM_P1;HPM_P2
2022/08/15 00:00:25;;;;;;;6.13;2.83;;;20.00;93.40;;;;;;5042327;28;20215;-84
2022/08/15 00:02:52;;;;;;;7.30;3.23;;;20.10;99.00;;;;;;5049350;28;20175;-84
2022/08/15 00:05:22;;;;;;;5.77;2.57;;;19.90;96.90;;;;;;5049209;28;20210;-84
2022/08/15 00:07:48;;;;;;;6.00;2.57;;;20.00;99.00;;;;;;5047839;28;20174;-84
2022/08/15 00:10:16;;;;;;;4.83;2.47;;;20.00;93.00;;;;;;5045048;28;20224;-83
2022/08/15 00:12:42;;;;;;;5.30;3.17;;;;;;;;;;5046627;28;20176;-83
2022/08/15 00:15:12;;;;;;;6.07;3.53;;;20.00;98.80;;;;;;5047473;28;20177;-83
2022/08/15 00:17:40;;;;;;;9.03;3.00;;;20.00;92.80;;;;;;5042950;28;20680;-83
2022/08/15 00:20:09;;;;;;;6.53;3.13;;;20.00;93.80;;;;;;5039137;28;20200;-84
2022/08/15 00:22:42;;;;;;;6.27;3.27;;;20.00;92.70;;;;;;5037636;28;20236;-83
2022/08/15 00:25:09;;;;;;;2.97;2.67;;;;;;;;;;5037729;28;20256;-83
2022/08/15 00:27:35;;;;;;;5.50;2.57;;;20.00;99.30;;;;;;5036556;28;20686;-83
2022/08/15 00:30:03;;;;;;;6.63;2.87;;;;;;;;;;5038742;28;20198;-83
2022/08/15 00:32:29;;;;;;;4.63;2.80;;;;;;;;;;5037045;28;20170;-83
2022/08/15 00:34:55;;;;;;;3.67;2.97;;;;;;;;;;5037312;28;20190;-83
2022/08/15 00:37:21;;;;;;;3.30;3.00;;;;;;;;;;5036699;28;20182;-83
2022/08/15 00:39:47;;;;;;;6.50;2.87;;;;;;;;;;5038494;28;20174;-84
2022/08/15 00:42:13;;;;;;;4.50;2.70;;;20.10;94.90;;;;;;5037214;28;20193;-83
2022/08/15 00:44:42;;;;;;;3.30;2.93;;;19.80;95.10;;;;;;5038807;28;20175;-83
2022/08/15 00:47:12;;;;;;;4.87;3.00;;;19.80;99.90;;;;;;5038401;28;20225;-83
2022/08/15 00:49:39;;;;;;;6.10;2.83;;;;;;;;;;5053015;28;20178;-83
2022/08/15 00:52:09;;;;;;;4.00;2.80;;;19.80;95.30;;;;;;5059470;28;20173;-84
2022/08/15 00:54:50;;;;;;;4.77;2.77;;;19.70;99.90;;;;;;5039920;28;20190;-83
2022/08/15 00:57:28;;;;;;;8.70;2.87;;;19.70;99.90;;;;;;5039326;28;20232;-84
2022/08/15 00:59:57;;;;;;;6.87;3.43;;;19.80;99.90;;;;;;5039767;28;20201;-83
2022/08/15 01:02:31;;;;;;;3.57;2.70;;;19.80;95.80;;;;;;5040515;28;20186;-83
2022/08/15 01:04:58;;;;;;;5.30;3.10;;;19.80;99.90;;;;;;5040183;28;20174;-84
2022/08/15 01:07:24;;;;;;;5.77;2.93;;;19.70;95.50;;;;;;5039734;28;20179;-84
2022/08/15 01:09:51;;;;;;;4.73;2.53;;;19.70;96.40;;;;;;5038486;28;20193;-83
2022/08/15 01:12:24;;;;;;;3.47;2.60;;;19.70;95.40;;;;;;5039278;28;20665;-84
2022/08/15 01:14:57;;;;;;;6.23;3.23;;;19.70;95.20;;;;;;5038221;28;20167;-84
2022/08/15 01:17:26;;;;;;;4.50;2.70;;;19.50;99.90;;;;;;5038851;28;20192;-83
2022/08/15 01:20:05;;;;;;;4.07;3.00;;;19.80;99.90;;;;;;5040498;28;20178;-84
2022/08/15 01:22:56;;;;;;;4.27;2.80;;;;;;;;;;5040595;28;20247;-83
2022/08/15 01:25:40;;;;;;;4.50;2.60;;;19.60;99.90;;;;;;5037634;28;20206;-83
2022/08/15 01:28:17;;;;;;;7.77;2.73;;;19.80;94.50;;;;;;5037068;28;20644;-83
2022/08/15 01:30:49;;;;;;;2.90;2.57;;;19.80;94.40;;;;;;5037641;28;20209;-83
2022/08/15 01:33:16;;;;;;;3.60;2.70;;;19.80;94.50;;;;;;5036947;28;20184;-83
2022/08/15 01:35:42;;;;;;;4.67;3.00;;;19.80;94.50;;;;;;5037551;28;20189;-83
2022/08/15 01:38:23;;;;;;;3.67;2.97;;;19.90;94.60;;;;;;5038760;28;20202;-83
2022/08/15 01:41:06;;;;;;;9.37;3.23;;;19.80;99.90;;;;;;5036338;28;20205;-83
2022/08/15 01:43:36;;;;;;;3.30;2.60;;;20.00;99.90;;;;;;5037237;28;20671;-83
2022/08/15 01:46:06;;;;;;;4.50;2.97;;;19.90;94.60;;;;;;5039300;28;20209;-83
2022/08/15 01:48:41;;;;;;;3.37;2.60;;;19.80;94.40;;;;;;5038943;28;20175;-84
2022/08/15 01:51:10;;;;;;;3.27;2.77;;;19.70;99.90;;;;;;5039116;28;20588;-83
2022/08/15 01:53:47;;;;;;;4.27;2.47;;;19.80;94.50;;;;;;5039145;28;20174;-83
2022/08/15 01:56:33;;;;;;;5.03;2.70;;;19.80;94.90;;;;;;5039194;28;20235;-84
2022/08/15 01:59:03;;;;;;;4.70;2.40;;;19.80;94.90;;;;;;5038613;28;20185;-83
2022/08/15 02:01:44;;;;;;;4.30;2.67;;;19.80;94.80;;;;;;5037262;28;20569;-83
2022/08/15 02:04:12;;;;;;;7.07;2.70;;;19.70;95.10;;;;;;5038636;28;20188;-83
2022/08/15 02:06:41;;;;;;;3.80;2.40;;;19.70;95.10;;;;;;5039708;28;20211;-83
2022/08/15 02:09:12;;;;;;;5.50;2.40;;;19.80;99.90;;;;;;5036693;28;20268;-83
2022/08/15 02:11:38;;;;;;;3.80;2.37;;;19.70;99.90;;;;;;5037190;28;20201;-83
2022/08/15 02:14:04;;;;;;;2.87;2.20;;;;;;;;;;5038534;28;20205;-83
2022/08/15 02:16:35;;;;;;;4.97;2.37;;;19.70;99.90;;;;;;5038747;28;20185;-83
2022/08/15 02:19:03;;;;;;;3.40;2.37;;;19.60;95.80;;;;;;5037526;28;20193;-83
2022/08/15 02:21:29;;;;;;;3.73;2.20;;;19.60;99.90;;;;;;5037147;28;20573;-83
2022/08/15 02:23:57;;;;;;;6.17;2.30;;;19.50;96.20;;;;;;5036927;28;20194;-83
2022/08/15 02:26:23;;;;;;;6.47;2.30;;;19.30;99.90;;;;;;5037307;28;20198;-83
2022/08/15 02:28:49;;;;;;;4.60;2.87;;;;;;;;;;5037995;28;20663;-83
2022/08/15 02:31:20;;;;;;;5.60;2.80;;;19.20;99.90;;;;;;5038242;28;20198;-84
2022/08/15 02:33:53;;;;;;;4.70;2.53;;;19.30;96.90;;;;;;5038117;28;20237;-83
2022/08/15 02:36:19;;;;;;;2.63;2.30;;;;;;;;;;5037894;28;20210;-83
2022/08/15 02:38:47;;;;;;;5.57;2.63;;;19.20;97.30;;;;;;5039462;28;20292;-83
2022/08/15 02:41:18;;;;;;;3.70;2.80;;;19.20;97.80;;;;;;5037041;28;20201;-83
2022/08/15 02:43:45;;;;;;;4.93;2.40;;;19.10;98.00;;;;;;5039409;28;20202;-83
2022/08/15 02:46:12;;;;;;;3.13;2.37;;;19.10;99.90;;;;;;5039950;28;20244;-83
2022/08/15 02:48:39;;;;;;;3.70;2.40;;;19.10;98.20;;;;;;5037473;28;20212;-83
2022/08/15 02:51:10;;;;;;;6.03;2.83;;;19.10;98.60;;;;;;5040586;28;20208;-83
2022/08/15 02:53:36;;;;;;;4.27;2.17;;;19.10;98.60;;;;;;5041105;28;20630;-82
2022/08/15 02:56:06;;;;;;;4.87;2.60;;;19.10;99.00;;;;;;5050777;28;20202;-83
2022/08/15 02:58:33;;;;;;;6.50;2.57;;;19.10;99.90;;;;;;5060601;28;20173;-84
2022/08/15 03:01:00;;;;;;;6.43;2.93;;;19.10;99.90;;;;;;5048090;28;20194;-83
2022/08/15 03:03:27;;;;;;;5.03;2.83;;;;;;;;;;5040531;28;20185;-83
2022/08/15 03:05:53;;;;;;;2.90;2.50;;;;;;;;;;5042145;28;20201;-83
2022/08/15 03:08:20;;;;;;;5.83;2.90;;;19.10;99.90;;;;;;5041898;28;20627;-83
2022/08/15 03:10:46;;;;;;;3.87;2.47;;;19.00;99.90;;;;;;5039911;28;20213;-83
2022/08/15 03:13:15;;;;;;;4.83;2.70;;;19.00;99.90;;;;;;5041342;28;20628;-83
2022/08/15 03:15:55;;;;;;;9.23;2.90;;;18.90;99.90;;;;;;5041870;28;20184;-83
2022/08/15 03:18:23;;;;;;;5.37;3.77;;;19.00;99.90;;;;;;5040363;28;20592;-83
2022/08/15 03:20:53;;;;;;;5.60;2.60;;;19.00;99.90;;;;;;5041311;28;20254;-83
2022/08/15 03:23:20;;;;;;;4.70;2.80;;;19.00;99.90;;;;;;5040322;28;20202;-83
2022/08/15 03:25:49;;;;;;;6.63;2.80;;;18.90;99.90;;;;;;5039898;28;20219;-83
2022/08/15 03:28:22;;;;;;;2.90;2.33;;;19.00;99.90;;;;;;5039716;28;20191;-83
2022/08/15 03:30:48;;;;;;;8.30;3.37;;;18.80;99.90;;;;;;5040550;28;20219;-83
2022/08/15 03:33:15;;;;;;;4.57;3.23;;;;;;;;;;5042321;28;20574;-83
2022/08/15 03:35:46;;;;;;;7.00;2.70;;;18.80;99.90;;;;;;5040153;28;20185;-84
2022/08/15 03:38:12;;;;;;;3.37;2.40;;;18.80;99.90;;;;;;5042399;28;20246;-83
2022/08/15 03:40:40;;;;;;;3.20;2.90;;;18.80;99.90;;;;;;5042303;28;20698;-83
2022/08/15 03:43:08;;;;;;;5.13;3.57;;;18.70;99.90;;;;;;5042005;28;20180;-83
2022/08/15 03:45:34;;;;;;;8.53;3.07;;;18.80;99.90;;;;;;5042051;28;20196;-83
2022/08/15 03:48:01;;;;;;;4.40;2.93;;;18.80;99.90;;;;;;5042455;28;20193;-83
2022/08/15 03:50:28;;;;;;;3.23;2.50;;;19.00;99.90;;;;;;5040621;28;20677;-83
2022/08/15 03:52:57;;;;;;;5.67;2.70;;;18.70;99.90;;;;;;5041016;28;20179;-83
2022/08/15 03:55:24;;;;;;;3.13;2.50;;;18.60;99.90;;;;;;5040349;28;20186;-83
2022/08/15 03:57:52;;;;;;;3.53;2.03;;;18.80;99.90;;;;;;5041253;28;20215;-84
2022/08/15 04:00:24;;;;;;;3.83;2.20;;;18.60;99.90;;;;;;5041423;28;20604;-83
2022/08/15 04:02:50;;;;;;;3.83;1.90;;;18.60;99.90;;;;;;5041743;28;20208;-83
2022/08/15 04:05:16;;;;;;;5.87;1.77;;;18.70;99.90;;;;;;5041211;28;20216;-84
2022/08/15 04:07:43;;;;;;;2.60;1.47;;;18.90;99.90;;;;;;5041273;28;20210;-84
2022/08/15 04:10:14;;;;;;;3.67;1.33;;;18.70;99.90;;;;;;5041156;28;20565;-83
2022/08/15 04:12:43;;;;;;;1.60;1.50;;;18.70;99.90;;;;;;5043030;28;20195;-84
2022/08/15 04:15:13;;;;;;;3.80;1.63;;;18.70;99.90;;;;;;5042024;28;20183;-84
2022/08/15 04:17:39;;;;;;;2.10;1.50;;;18.80;99.90;;;;;;5041163;28;20184;-83
2022/08/15 04:20:07;;;;;;;2.40;1.37;;;18.60;99.90;;;;;;5040460;28;20537;-84
2022/08/15 04:22:43;;;;;;;4.17;1.70;;;18.80;99.90;;;;;;5046086;28;20178;-84
2022/08/15 04:25:09;;;;;;;1.50;1.37;;;;;;;;;;5049044;28;20198;-83
2022/08/15 04:27:36;;;;;;;2.87;1.70;;;18.70;99.90;;;;;;5052264;28;20238;-83
2022/08/15 04:30:03;;;;;;;2.20;1.50;;;18.60;99.90;;;;;;5055500;28;20180;-82
2022/08/15 04:32:29;;;;;;;2.97;1.60;;;;;;;;;;5055993;28;20202;-82
2022/08/15 04:34:58;;;;;;;3.30;1.90;;;18.50;99.90;;;;;;5055713;28;20396;-83
2022/08/15 04:37:25;;;;;;;1.80;1.50;;;18.50;99.90;;;;;;5055602;28;20183;-83
2022/08/15 04:39:51;;;;;;;1.67;1.50;;;;;;;;;;5041683;28;20629;-83
2022/08/15 04:42:21;;;;;;;1.77;1.40;;;18.50;99.90;;;;;;5038295;28;20182;-83
2022/08/15 04:44:48;;;;;;;1.57;1.40;;;18.50;99.90;;;;;;5039532;28;20625;-83
2022/08/15 04:47:15;;;;;;;1.80;1.47;;;18.10;99.90;;;;;;5038574;28;20210;-83
2022/08/15 04:49:42;;;;;;;1.97;1.33;;;18.20;99.90;;;;;;5036971;28;20249;-83
2022/08/15 04:52:11;;;;;;;2.23;1.37;;;18.20;99.90;;;;;;5037888;28;20195;-83
2022/08/15 04:54:38;;;;;;;1.17;1.07;;;18.10;99.90;;;;;;5038629;28;20175;-83
2022/08/15 04:57:04;;;;;;;1.37;1.27;;;;;;;;;;5037283;28;20588;-82
2022/08/15 04:59:30;;;;;;;2.17;1.53;;;17.80;99.90;;;;;;5036683;28;20193;-83
2022/08/15 05:01:56;;;;;;;1.87;1.60;;;;;;;;;;5038293;28;20208;-83
2022/08/15 05:04:22;;;;;;;2.47;1.80;;;17.60;99.90;;;;;;5053897;28;20202;-83
2022/08/15 05:06:48;;;;;;;1.80;1.70;;;;;;;;;;5059970;28;20191;-83
2022/08/15 05:09:14;;;;;;;4.10;2.13;;;;;;;;;;5040620;28;20197;-83
2022/08/15 05:11:40;;;;;;;2.77;1.90;;;17.10;99.90;;;;;;5040417;28;20199;-83
2022/08/15 05:14:06;;;;;;;4.43;2.13;;;;;;;;;;5039725;28;20174;-83
2022/08/15 05:16:33;;;;;;;2.30;2.03;;;17.40;99.90;;;;;;5038781;28;20537;-83
2022/08/15 05:19:00;;;;;;;2.60;1.70;;;;;;;;;;5039019;28;20206;-83
2022/08/15 05:21:28;;;;;;;3.57;2.33;;;17.20;99.90;;;;;;5041012;28;20206;-83
2022/08/15 05:23:54;;;;;;;2.70;2.10;;;;;;;;;;5040795;28;20533;-83
2022/08/15 05:26:20;;;;;;;4.43;2.43;;;;;;;;;;5039151;28;20693;-83
2022/08/15 05:28:46;;;;;;;3.03;1.93;;;17.30;99.90;;;;;;5040911;28;20175;-83
2022/08/15 05:31:12;;;;;;;2.47;2.20;;;;;;;;;;5038698;28;20214;-83
2022/08/15 05:33:39;;;;;;;2.63;2.03;;;17.20;99.90;;;;;;5038828;28;20643;-83
2022/08/15 05:36:07;;;;;;;2.40;1.80;;;17.10;99.90;;;;;;5039323;28;20359;-84
2022/08/15 05:38:41;;;;;;;2.00;1.80;;;17.00;99.90;;;;;;5038767;28;20178;-84
2022/08/15 05:41:32;;;;;;;2.47;2.07;;;17.00;99.90;;;;;;5039439;28;20213;-83
2022/08/15 05:44:08;;;;;;;3.00;2.10;;;16.90;99.90;;;;;;5039250;28;20193;-83
2022/08/15 05:46:46;;;;;;;2.20;1.90;;;16.90;99.90;;;;;;5041435;28;20215;-83
2022/08/15 05:49:11;;;;;;;2.33;1.70;;;16.80;99.90;;;;;;5039092;28;20182;-83
2022/08/15 05:51:47;;;;;;;3.00;1.83;;;16.80;99.90;;;;;;5039583;28;20201;-84
2022/08/15 05:54:50;;;;;;;3.37;2.13;;;16.80;99.90;;;;;;5039829;28;20174;-84
2022/08/15 05:57:28;;;;;;;1.93;1.80;;;16.70;99.90;;;;;;5040771;28;20181;-84
2022/08/15 05:59:59;;;;;;;2.20;2.00;;;16.80;99.90;;;;;;5043360;28;20632;-84
2022/08/15 06:02:31;;;;;;;2.67;1.90;;;16.90;99.90;;;;;;5040328;28;20182;-83
2022/08/15 06:05:11;;;;;;;3.13;2.10;;;16.60;99.90;;;;;;5040870;28;20189;-84
2022/08/15 06:07:41;;;;;;;2.10;1.90;;;16.90;99.90;;;;;;5039971;28;20704;-83
2022/08/15 06:10:26;;;;;;;2.97;1.80;;;16.80;99.90;;;;;;5039992;28;20214;-83
2022/08/15 06:12:57;;;;;;;1.80;1.60;;;;;;;;;;5037004;28;20182;-84
2022/08/15 06:15:45;;;;;;;2.73;1.60;;;16.90;99.90;;;;;;5036926;28;20695;-84
2022/08/15 06:18:14;;;;;;;2.33;1.90;;;17.10;99.90;;;;;;5038643;28;20535;-84
2022/08/15 06:20:45;;;;;;;2.67;1.77;;;17.00;99.90;;;;;;5036526;28;20203;-83
2022/08/15 06:23:34;;;;;;;3.47;1.80;;;17.10;99.90;;;;;;5038436;28;20168;-83
2022/08/15 06:26:27;;;;;;;1.57;1.47;;;17.20;99.90;;;;;;5036689;28;20667;-84
2022/08/15 06:29:31;;;;;;;1.50;1.37;;;17.40;99.90;;;;;;5036809;28;20203;-84
2022/08/15 06:32:11;;;;;;;2.07;1.87;;;17.40;99.90;;;;;;5036633;28;20193;-84
2022/08/15 06:34:47;;;;;;;2.03;1.57;;;17.30;99.90;;;;;;5036915;28;20178;-84
2022/08/15 06:37:30;;;;;;;4.00;2.00;;;17.60;99.90;;;;;;5037664;28;20204;-84
2022/08/15 06:39:56;;;;;;;2.37;1.50;;;17.80;99.90;;;;;;5037799;28;20170;-84
2022/08/15 06:42:33;;;;;;;1.60;1.50;;;;;;;;;;5037856;28;20526;-84
2022/08/15 06:45:04;;;;;;;3.80;1.93;;;17.70;99.90;;;;;;5037225;28;20174;-84
2022/08/15 06:47:32;;;;;;;2.53;1.77;;;17.80;99.90;;;;;;5036632;28;20227;-84
2022/08/15 06:50:05;;;;;;;2.70;1.83;;;17.90;99.90;;;;;;5036173;28;20179;-84
2022/08/15 06:52:32;;;;;;;3.17;1.80;;;;;;;;;;5036152;28;20177;-84
2022/08/15 06:54:59;;;;;;;2.90;1.87;;;;;;;;;;5035698;28;20206;-83
2022/08/15 06:57:57;;;;;;;4.77;2.10;;;18.10;99.90;;;;;;5036668;28;20180;-84
2022/08/15 07:00:51;;;;;;;2.37;1.70;;;18.30;99.90;;;;;;5035355;28;20211;-83
2022/08/15 07:03:48;;;;;;;3.63;2.00;;;18.00;99.90;;;;;;5037591;28;20171;-83
2022/08/15 07:06:18;;;;;;;2.20;2.00;;;18.20;99.90;;;;;;5039207;28;20274;-83
2022/08/15 07:09:00;;;;;;;3.73;2.30;;;18.20;99.90;;;;;;5040745;28;20175;-83
2022/08/15 07:11:37;;;;;;;3.00;2.07;;;18.20;99.90;;;;;;5050543;28;20199;-84
2022/08/15 07:14:22;;;;;;;3.03;2.30;;;18.30;99.90;;;;;;5052520;28;20170;-83
2022/08/15 07:16:53;;;;;;;3.70;2.17;;;18.20;99.90;;;;;;5044232;28;20210;-84
2022/08/15 07:19:19;;;;;;;4.13;2.10;;;18.20;99.90;;;;;;5037639;28;20218;-84
2022/08/15 07:21:45;;;;;;;4.17;2.13;;;18.40;99.90;;;;;;5037777;28;20202;-84
2022/08/15 07:24:17;;;;;;;5.63;2.00;;;;;;;;;;5037750;28;20589;-84
2022/08/15 07:26:46;;;;;;;2.17;1.97;;;;;;;;;;5037686;28;20690;-84
2022/08/15 07:29:24;;;;;;;2.97;1.87;;;18.30;99.90;;;;;;5037068;28;20291;-84
2022/08/15 07:31:58;;;;;;;5.07;2.50;;;18.30;99.90;;;;;;5039199;28;20195;-84
2022/08/15 07:34:24;;;;;;;2.40;2.20;;;18.20;99.90;;;;;;5040223;28;20182;-80
2022/08/15 07:37:00;;;;;;;2.43;2.00;;;18.20;99.90;;;;;;5043048;28;20186;-84
2022/08/15 07:39:30;;;;;;;2.90;2.07;;;18.30;99.90;;;;;;5043044;28;20189;-84
2022/08/15 07:41:56;;;;;;;3.63;2.70;;;;;;;;;;5042436;28;20206;-83
2022/08/15 07:44:22;;;;;;;2.97;1.97;;;;;;;;;;5043074;28;20329;-84
2022/08/15 07:46:56;;;;;;;3.93;2.40;;;18.70;99.90;;;;;;5045398;28;20240;-83
2022/08/15 07:49:31;;;;;;;4.30;2.20;;;18.70;99.90;;;;;;5042883;28;20237;-84
2022/08/15 07:52:17;;;;;;;2.90;2.20;;;19.30;99.90;;;;;;5042565;28;20658;-84
2022/08/15 07:54:43;;;;;;;2.30;1.93;;;19.60;99.90;;;;;;5042998;28;20620;-83
2022/08/15 07:57:28;;;;;;;3.90;1.90;;;19.70;99.90;;;;;;5042006;28;20204;-83
2022/08/15 08:00:09;;;;;;;3.50;2.20;;;20.10;99.90;;;;;;5042957;28;20182;-83
2022/08/15 08:03:05;;;;;;;2.43;2.07;;;20.10;99.90;;;;;;5045522;28;20250;-81
2022/08/15 08:05:50;;;;;;;4.63;2.43;;;20.00;99.90;;;;;;5040441;28;20657;-82
2022/08/15 08:08:17;;;;;;;3.00;2.17;;;20.10;99.90;;;;;;5038914;28;20184;-81
2022/08/15 08:10:57;;;;;;;2.40;2.03;;;20.30;99.90;;;;;;5039208;28;20247;-81
2022/08/15 08:13:38;;;;;;;2.77;2.37;;;;;;;;;;5039383;28;20240;-81
2022/08/15 08:16:08;;;;;;;3.60;2.20;;;19.90;99.90;;;;;;5039056;28;20182;-82
2022/08/15 08:18:52;;;;;;;6.13;2.23;;;20.10;99.90;;;;;;5040237;28;20204;-81
2022/08/15 08:21:26;;;;;;;2.27;2.03;;;20.20;99.90;;;;;;5040036;28;20199;-81
2022/08/15 08:23:56;;;;;;;3.07;2.27;;;19.90;99.90;;;;;;5040288;28;20232;-82
2022/08/15 08:26:35;;;;;;;2.70;2.00;;;20.00;99.90;;;;;;5039145;28;20214;-82
2022/08/15 08:29:38;;;;;;;3.43;2.40;;;19.70;99.90;;;;;;5039261;28;20181;-82
2022/08/15 08:32:08;;;;;;;3.63;2.10;;;20.00;99.90;;;;;;5039150;28;20198;-81
2022/08/15 08:34:56;;;;;;;2.37;2.17;;;20.20;99.90;;;;;;5041884;28;20175;-81
2022/08/15 08:37:51;;;;;;;2.77;2.37;;;20.50;99.90;;;;;;5038792;28;20523;-82
2022/08/15 08:44:06;;;;;;;3.53;2.10;;;20.00;99.90;;;;;;5040754;28;20189;-81
2022/08/15 08:46:32;;;;;;;2.87;2.20;;;;;;;;;;5040983;28;20202;-82
2022/08/15 08:49:10;;;;;;;2.33;2.13;;;20.50;99.90;;;;;;5040370;28;20232;-82
2022/08/15 08:51:52;;;;;;;2.83;2.63;;;20.50;99.90;;;;;;5041644;28;20194;-82
2022/08/15 08:55:00;;;;;;;2.37;1.97;;;21.30;99.90;;;;;;5040940;28;20624;-82
2022/08/15 08:57:36;;;;;;;2.33;2.03;;;21.80;99.90;;;;;;5038939;28;20186;-82
2022/08/15 09:00:16;;;;;;;2.50;2.10;;;22.00;99.90;;;;;;5039189;28;20185;-82
2022/08/15 09:02:51;;;;;;;3.10;2.47;;;22.50;99.90;;;;;;5039609;28;20277;-82
2022/08/15 09:05:37;;;;;;;3.10;1.90;;;22.90;99.90;;;;;;5040647;28;20181;-82
2022/08/15 09:08:14;;;;;;;4.37;2.20;;;23.20;99.90;;;;;;5040324;28;20180;-81
2022/08/15 09:10:44;;;;;;;2.43;1.93;;;23.10;99.90;;;;;;5039568;28;20224;-81
2022/08/15 09:16:02;;;;;;;2.00;1.90;;;23.80;99.90;;;;;;5038473;28;20185;-82
2022/08/15 09:18:33;;;;;;;4.47;1.77;;;24.10;99.90;;;;;;5039805;28;20187;-81
2022/08/15 09:20:59;;;;;;;2.87;1.90;;;24.40;99.90;;;;;;5047507;28;20202;-81
2022/08/15 09:23:30;;;;;;;2.50;1.90;;;24.50;99.90;;;;;;5053909;28;20205;-81
2022/08/15 09:25:56;;;;;;;1.90;1.80;;;;;;;;;;5056097;28;20220;-82
2022/08/15 09:28:28;;;;;;;1.40;1.00;;;;;;;;;;5040057;28;20181;-83
2022/08/15 09:30:56;;;;;;;1.30;1.20;;;24.70;99.90;;;;;;5038699;28;20211;-82
2022/08/15 09:33:52;;;;;;;2.30;1.40;;;25.10;99.90;;;;;;5040112;28;20169;-83
2022/08/15 09:36:19;;;;;;;1.50;1.20;;;;;;;;;;5037937;28;20184;-82
2022/08/15 09:39:33;;;;;;;1.97;1.27;;;24.20;99.90;;;;;;5037763;28;20202;-82
2022/08/15 09:42:02;;;;;;;1.77;1.23;;;24.40;99.90;;;;;;5036889;28;20220;-82
2022/08/15 09:44:49;;;;;;;3.27;1.57;;;24.00;99.90;;;;;;5037892;28;20203;-83
2022/08/15 09:47:16;;;;;;;2.13;1.50;;;;;;;;;;5037061;28;20208;-83
2022/08/15 09:49:57;;;;;;;1.70;1.57;;;23.50;99.90;;;;;;5036942;28;20654;-84
2022/08/15 09:53:07;;;;;;;1.73;1.43;;;23.50;99.90;;;;;;5036765;28;20185;-83
2022/08/15 09:55:44;;;;;;;1.87;1.50;;;;;;;;;;5037497;28;20175;-83
2022/08/15 09:58:20;;;;;;;3.20;1.63;;;23.30;99.90;;;;;;5037105;28;20179;-83
2022/08/15 10:01:24;;;;;;;1.60;1.50;;;23.30;99.90;;;;;;5038042;28;20636;-83
2022/08/15 10:03:55;;;;;;;1.80;1.27;;;23.30;99.90;;;;;;5037457;28;20198;-82
2022/08/15 10:06:23;;;;;;;1.67;1.40;;;;;;;;;;5038798;28;20197;-83
2022/08/15 10:08:54;;;;;;;1.40;1.30;;;23.30;99.90;;;;;;5037681;28;20179;-84
2022/08/15 10:11:30;;;;;;;2.03;1.20;;;23.60;99.90;;;;;;5037941;28;20302;-83
2022/08/15 10:14:05;;;;;;;1.53;1.23;;;23.90;99.90;;;;;;5038516;28;20178;-83
2022/08/15 10:16:36;;;;;;;1.47;1.37;;;23.70;99.90;;;;;;5039585;28;20158;-83
2022/08/15 10:19:32;;;;;;;1.73;1.53;;;23.50;99.90;;;;;;5039156;28;20179;-83
2022/08/15 10:22:01;;;;;;;1.90;1.40;;;23.70;99.90;;;;;;5038896;28;20374;-83
2022/08/15 10:24:36;;;;;;;1.80;1.10;;;23.50;99.90;;;;;;5037835;28;20258;-83
2022/08/15 10:27:09;;;;;;;2.13;1.47;;;23.60;99.90;;;;;;5038053;28;20204;-83
2022/08/15 10:29:38;;;;;;;1.80;1.53;;;23.80;99.90;;;;;;5038393;28;20173;-83
2022/08/15 10:32:04;;;;;;;2.57;1.63;;;23.90;99.90;;;;;;5040249;28;20202;-83
2022/08/15 10:34:50;;;;;;;1.60;1.50;;;24.10;99.90;;;;;;5041393;28;20171;-83
2022/08/15 10:37:16;;;;;;;3.43;1.50;;;;;;;;;;5040262;28;20182;-83
2022/08/15 10:39:53;;;;;;;3.87;1.70;;;24.20;99.90;;;;;;5041498;28;20643;-83
2022/08/15 10:42:29;;;;;;;1.87;1.30;;;24.40;99.90;;;;;;5037548;28;20240;-83
2022/08/15 10:45:11;;;;;;;2.40;1.60;;;23.50;99.90;;;;;;5038440;28;20227;-83
2022/08/15 10:47:58;;;;;;;2.43;1.83;;;23.50;99.90;;;;;;5038829;28;20194;-83
2022/08/15 10:50:41;;;;;;;3.40;1.70;;;23.80;99.90;;;;;;5036294;28;20202;-83
2022/08/15 10:53:21;;;;;;;2.47;2.10;;;23.20;99.90;;;;;;5037949;28;20173;-83
2022/08/15 10:55:47;;;;;;;2.27;1.97;;;;;;;;;;5038312;28;20232;-84
2022/08/15 10:58:22;;;;;;;2.47;1.67;;;24.80;99.90;;;;;;5042642;28;20180;-84
2022/08/15 11:00:51;;;;;;;2.50;1.63;;;25.30;99.90;;;;;;5041463;28;20206;-85
2022/08/15 11:03:44;;;;;;;1.77;1.57;;;25.60;99.90;;;;;;5041035;28;20174;-84
2022/08/15 11:06:14;;;;;;;3.10;1.60;;;26.10;99.90;;;;;;5040055;28;20207;-84
2022/08/15 11:09:04;;;;;;;1.80;1.40;;;26.10;99.90;;;;;;5036712;28;20177;-84
2022/08/15 11:11:35;;;;;;;1.40;1.30;;;26.20;99.90;;;;;;5037649;28;20236;-84
2022/08/15 11:14:11;;;;;;;1.63;1.47;;;25.90;99.90;;;;;;5041896;28;20224;-83
2022/08/15 11:16:40;;;;;;;3.13;1.70;;;26.10;98.90;;;;;;5042378;28;20182;-83
2022/08/15 11:19:18;;;;;;;1.60;1.50;;;26.50;98.10;;;;;;5041594;28;20525;-83
2022/08/15 11:21:55;;;;;;;1.73;1.20;;;27.00;96.80;;;;;;5043765;28;20186;-83
2022/08/15 11:24:31;;;;;;;2.77;1.60;;;27.70;94.80;;;;;;5040676;28;20190;-83
2022/08/15 11:27:28;;;;;;;1.87;1.30;;;28.30;95.40;;;;;;5043439;28;20624;-83
2022/08/15 11:29:57;;;;;;;1.93;1.20;;;28.30;92.60;;;;;;5038141;28;20203;-83
2022/08/15 11:32:25;;;;;;;1.70;1.27;;;28.60;93.60;;;;;;5046440;28;20182;-83
2022/08/15 11:34:51;;;;;;;2.03;1.30;;;28.50;90.10;;;;;;5055170;28;20181;-83
2022/08/15 11:37:30;;;;;;;3.13;1.27;;;27.80;90.40;;;;;;5052792;28;20183;-83
2022/08/15 11:39:59;;;;;;;1.53;1.20;;;27.80;92.40;;;;;;5041693;28;20326;-83
2022/08/15 11:42:28;;;;;;;1.97;1.40;;;27.90;92.50;;;;;;5041990;28;20217;-83
2022/08/15 11:44:58;;;;;;;5.30;3.90;;;27.90;93.10;;;;;;5043087;28;20605;-83
2022/08/15 11:47:28;;;;;;;2.13;1.17;;;27.90;93.10;;;;;;5042394;28;20256;-83
2022/08/15 11:49:58;;;;;;;2.17;1.33;;;27.60;91.00;;;;;;5041875;28;20268;-83
2022/08/15 11:52:24;;;;;;;3.03;1.77;;;;;;;;;;5041945;28;20268;-83
2022/08/15 11:55:13;;;;;;;2.80;1.30;;;26.90;91.30;;;;;;5042314;28;20177;-83
2022/08/15 11:57:42;;;;;;;2.43;1.20;;;26.50;94.00;;;;;;5041631;28;20185;-83
2022/08/15 12:00:21;;;;;;;1.70;1.40;;;25.90;91.80;;;;;;5041341;28;20184;-83
2022/08/15 12:02:47;;;;;;;1.33;1.23;;;25.90;93.30;;;;;;5041952;28;20210;-82
2022/08/15 12:05:16;;;;;;;2.83;1.63;;;26.70;96.70;;;;;;5043608;28;20176;-82
2022/08/15 12:07:46;;;;;;;3.57;1.57;;;27.50;96.20;;;;;;5043353;28;20260;-83
2022/08/15 12:10:39;;;;;;;1.80;1.40;;;27.60;93.20;;;;;;5041784;28;20241;-84
2022/08/15 12:13:07;;;;;;;2.53;1.73;;;27.70;91.00;;;;;;5043040;28;20629;-83
2022/08/15 12:15:32;;;;;;;3.30;1.47;;;27.60;90.60;;;;;;5042155;28;20180;-83
2022/08/15 12:18:17;;;;;;;2.17;1.60;;;27.70;94.40;;;;;;5045053;28;20210;-83
2022/08/15 12:20:47;;;;;;;3.57;1.50;;;;;;;;;;5042851;28;20558;-83
2022/08/15 12:23:28;;;;;;;3.30;1.30;;;27.70;92.20;;;;;;5042207;28;20639;-84
2022/08/15 12:26:05;;;;;;;1.83;1.37;;;27.90;92.00;;;;;;5043010;28;20204;-84
2022/08/15 12:28:31;;;;;;;2.23;1.50;;;28.50;91.90;;;;;;5042822;28;20205;-84
2022/08/15 12:31:19;;;;;;;1.70;1.53;;;28.90;92.10;;;;;;5046288;28;20189;-83
2022/08/15 12:33:46;;;;;;;1.53;1.37;;;29.30;92.90;;;;;;5042410;28;20176;-83
2022/08/15 12:36:12;;;;;;;2.43;1.80;;;29.60;94.60;;;;;;5040557;28;20189;-83
2022/08/15 12:38:39;;;;;;;2.13;1.43;;;29.90;91.10;;;;;;5042838;28;20577;-84
2022/08/15 12:41:06;;;;;;;1.97;1.47;;;;;;;;;;5043341;28;20191;-84
2022/08/15 12:43:32;;;;;;;1.77;1.67;;;;;;;;;;5042403;28;20170;-84
2022/08/15 12:45:58;;;;;;;1.73;1.63;;;30.50;86.90;;;;;;5041176;28;20209;-84
2022/08/15 12:48:29;;;;;;;4.50;1.80;;;30.20;87.70;;;;;;5042855;28;20176;-84
2022/08/15 12:50:55;;;;;;;1.77;1.53;;;29.50;91.00;;;;;;5042654;28;20194;-84
2022/08/15 12:53:21;;;;;;;3.33;1.77;;;29.40;90.50;;;;;;5041788;28;20168;-84
2022/08/15 12:55:48;;;;;;;2.60;1.73;;;28.90;91.70;;;;;;5041494;28;20179;-84
2022/08/15 12:58:17;;;;;;;1.73;1.50;;;28.30;92.50;;;;;;5040193;28;20516;-84
2022/08/15 13:00:44;;;;;;;2.40;1.43;;;28.70;91.30;;;;;;5041368;28;20278;-83
2022/08/15 13:03:19;;;;;;;2.07;1.73;;;28.70;91.70;;;;;;5041187;28;20178;-84
2022/08/15 13:05:52;;;;;;;1.80;1.50;;;29.40;88.70;;;;;;5042231;28;20202;-84
2022/08/15 13:08:18;;;;;;;2.80;1.70;;;29.40;91.90;;;;;;5041777;28;20171;-84
2022/08/15 13:10:44;;;;;;;1.70;1.60;;;30.30;92.50;;;;;;5040785;28;20240;-83
2022/08/15 13:13:11;;;;;;;2.43;1.47;;;30.40;88.20;;;;;;5040397;28;20176;-84
2022/08/15 13:15:38;;;;;;;1.63;1.53;;;;;;;;;;5039889;28;20690;-84
2022/08/15 13:18:04;;;;;;;2.73;1.60;;;;;;;;;;5039876;28;20601;-84
2022/08/15 13:26:00;;;;;;;1.90;1.70;;;31.60;85.40;;;;;;5039265;28;20248;-83
2022/08/15 13:28:25;;;;;;;2.60;1.80;;;31.80;85.10;;;;;;5038303;28;20176;-83
2022/08/15 13:30:51;;;;;;;2.00;1.60;;;32.10;82.30;;;;;;5038499;28;20811;-83
2022/08/15 13:33:18;;;;;;;1.97;1.50;;;32.20;88.00;;;;;;5038352;28;20181;-83
2022/08/15 13:35:44;;;;;;;2.60;2.00;;;;;;;;;;5036981;28;20188;-83
2022/08/15 13:38:10;;;;;;;1.70;1.60;;;32.50;82.40;;;;;;5039015;28;20196;-83
2022/08/15 13:40:38;;;;;;;3.50;1.87;;;32.60;79.30;;;;;;5049154;28;20202;-83
2022/08/15 13:43:04;;;;;;;2.30;1.60;;;32.60;75.70;;;;;;5054951;28;20173;-84